createdAt,value
2019-02-25T00:01:24.734Z,6.30
2019-02-25T00:03:50.883Z,6.20
2019-02-25T00:06:17.048Z,6.20
2019-02-25T00:08:43.391Z,6.20
2019-02-25T00:11:09.780Z,6.20
2019-02-25T00:13:36.164Z,6.30
2019-02-25T00:16:02.413Z,6.40
2019-02-25T00:18:28.651Z,6.30
2019-02-25T00:20:54.794Z,6.20
2019-02-25T00:23:20.939Z,6.20
2019-02-25T00:25:47.078Z,6.10
2019-02-25T00:28:13.237Z,6.00
2019-02-25T00:30:39.382Z,6.00
2019-02-25T00:33:05.521Z,6.00
2019-02-25T00:35:31.675Z,6.00
2019-02-25T00:37:57.819Z,6.00
2019-02-25T00:40:24.963Z,5.90
2019-02-25T00:42:51.107Z,6.00
2019-02-25T00:45:17.483Z,5.90
2019-02-25T00:47:43.967Z,5.80
2019-02-25T00:50:18.488Z,5.80
2019-02-25T00:52:44.629Z,5.80
2019-02-25T00:55:11.479Z,5.80
2019-02-25T00:57:37.622Z,5.80
2019-02-25T01:00:21.344Z,5.70
2019-02-25T01:02:47.492Z,5.80
2019-02-25T01:05:14.807Z,5.60
2019-02-25T01:07:40.959Z,5.60
2019-02-25T01:10:09.612Z,5.60
2019-02-25T01:12:35.761Z,5.60
2019-02-25T01:15:02.803Z,5.60
2019-02-25T01:17:29.060Z,5.60
2019-02-25T01:19:55.203Z,5.60
2019-02-25T01:22:21.360Z,5.60
2019-02-25T01:24:47.499Z,5.60
2019-02-25T01:27:13.658Z,5.50
2019-02-25T01:29:39.804Z,5.50
2019-02-25T01:32:05.954Z,5.50
2019-02-25T01:34:32.105Z,5.50
2019-02-25T01:36:58.260Z,5.50
2019-02-25T01:39:24.627Z,5.40
2019-02-25T01:41:51.024Z,5.50
2019-02-25T01:44:17.159Z,5.40
2019-02-25T01:46:43.319Z,5.40
2019-02-25T01:49:09.455Z,5.40
2019-02-25T01:51:35.629Z,5.40
2019-02-25T01:54:01.813Z,5.30
2019-02-25T01:56:27.960Z,5.30
2019-02-25T01:58:54.111Z,5.30
2019-02-25T02:01:20.252Z,5.30
2019-02-25T02:03:46.400Z,5.30
2019-02-25T02:06:12.547Z,5.30
2019-02-25T02:08:38.933Z,5.30
2019-02-25T02:11:05.066Z,5.30
2019-02-25T02:13:31.214Z,5.30
2019-02-25T02:15:57.351Z,5.30
2019-02-25T02:18:23.772Z,5.20
2019-02-25T02:20:49.932Z,5.20
2019-02-25T02:23:16.066Z,5.20
2019-02-25T02:25:42.219Z,5.30
2019-02-25T02:28:08.366Z,5.40
2019-02-25T02:30:34.516Z,5.50
2019-02-25T02:33:00.671Z,5.50
2019-02-25T02:35:26.879Z,5.40
2019-02-25T02:37:53.262Z,5.20
2019-02-25T02:40:19.419Z,5.20
2019-02-25T02:42:55.394Z,5.20
2019-02-25T02:45:44.272Z,5.10
2019-02-25T02:48:14.458Z,5.10
2019-02-25T02:50:40.607Z,5.10
2019-02-25T02:53:06.750Z,5.00
2019-02-25T02:55:32.913Z,5.00
2019-02-25T02:57:59.049Z,4.90
2019-02-25T03:00:25.191Z,4.90
2019-02-25T03:02:51.350Z,4.90
2019-02-25T03:05:17.593Z,4.90
2019-02-25T03:07:43.840Z,4.80
2019-02-25T03:10:12.100Z,4.80
2019-02-25T03:12:38.510Z,4.80
2019-02-25T03:15:08.302Z,4.90
2019-02-25T03:17:35.072Z,4.90
2019-02-25T03:20:01.444Z,5.00
2019-02-25T03:22:27.684Z,5.00
2019-02-25T03:24:53.849Z,4.90
2019-02-25T03:27:19.979Z,4.80
2019-02-25T03:29:46.134Z,4.80
2019-02-25T03:32:12.277Z,4.70
2019-02-25T03:34:38.417Z,4.70
2019-02-25T03:37:04.567Z,4.70
2019-02-25T03:39:30.711Z,4.70
2019-02-25T03:41:56.891Z,4.60
2019-02-25T03:44:23.028Z,4.60
2019-02-25T03:46:49.454Z,4.60
2019-02-25T03:49:15.880Z,4.50
2019-02-25T03:51:42.356Z,4.60
2019-02-25T03:54:08.492Z,4.50
2019-02-25T03:56:34.661Z,4.50
2019-02-25T03:59:00.799Z,4.50
2019-02-25T04:01:27.946Z,4.50
2019-02-25T04:03:54.103Z,4.50
2019-02-25T04:06:20.268Z,4.50
2019-02-25T04:08:46.419Z,4.50
2019-02-25T04:11:12.565Z,4.50
2019-02-25T04:13:38.726Z,4.40
2019-02-25T04:16:05.141Z,4.40
2019-02-25T04:18:31.280Z,4.40
2019-02-25T04:20:57.428Z,4.40
2019-02-25T04:23:23.567Z,4.40
2019-02-25T04:25:49.731Z,4.40
2019-02-25T04:28:15.868Z,4.40
2019-02-25T04:30:42.139Z,4.40
2019-02-25T04:33:08.509Z,4.40
2019-02-25T04:35:34.676Z,4.40
2019-02-25T04:38:02.926Z,4.30
2019-02-25T04:40:29.156Z,4.30
2019-02-25T04:42:55.314Z,4.30
2019-02-25T04:45:21.718Z,4.20
2019-02-25T04:47:47.865Z,4.10
2019-02-25T04:50:14.002Z,4.10
2019-02-25T04:52:40.163Z,4.10
2019-02-25T04:55:10.666Z,4.10
2019-02-25T04:57:37.942Z,3.80
2019-02-25T05:00:07.959Z,3.90
2019-02-25T05:02:34.563Z,4.00
2019-02-25T05:05:00.760Z,4.00
2019-02-25T05:07:27.351Z,3.90
2019-02-25T05:09:53.491Z,4.00
2019-02-25T05:12:19.643Z,3.90
2019-02-25T05:14:45.792Z,3.90
2019-02-25T05:17:11.935Z,3.90
2019-02-25T05:19:38.102Z,3.80
2019-02-25T05:22:04.247Z,3.80
2019-02-25T05:24:30.389Z,3.90
2019-02-25T05:26:56.585Z,3.80
2019-02-25T05:29:22.984Z,3.80
2019-02-25T05:31:49.132Z,3.80
2019-02-25T05:34:15.276Z,3.80
2019-02-25T05:36:41.679Z,3.70
2019-02-25T05:39:07.813Z,3.80
2019-02-25T05:41:33.947Z,3.70
2019-02-25T05:44:00.096Z,3.70
2019-02-25T05:46:26.240Z,3.70
2019-02-25T05:48:52.390Z,3.60
2019-02-25T05:51:18.560Z,3.60
2019-02-25T05:53:44.704Z,3.60
2019-02-25T05:56:10.838Z,3.60
2019-02-25T05:58:37.311Z,3.60
2019-02-25T06:01:03.704Z,3.60
2019-02-25T06:03:29.855Z,3.60
2019-02-25T06:05:56.228Z,3.60
2019-02-25T06:08:22.661Z,3.60
2019-02-25T06:10:48.806Z,3.60
2019-02-25T06:13:15.068Z,3.60
2019-02-25T06:15:41.200Z,3.50
2019-02-25T06:18:07.395Z,3.50
2019-02-25T06:20:33.559Z,3.40
2019-02-25T06:22:59.736Z,3.20
2019-02-25T06:25:25.881Z,3.30
2019-02-25T06:27:52.054Z,3.40
2019-02-25T06:30:21.737Z,3.40
2019-02-25T06:32:47.880Z,3.40
2019-02-25T06:35:14.022Z,3.30
2019-02-25T06:37:40.210Z,3.40
2019-02-25T06:40:09.391Z,3.30
2019-02-25T06:42:35.622Z,3.30
2019-02-25T06:45:02.275Z,3.40
2019-02-25T06:47:28.412Z,3.40
2019-02-25T06:49:54.596Z,3.40
2019-02-25T06:52:20.728Z,3.70
2019-02-25T06:54:46.895Z,4.00
2019-02-25T06:57:13.070Z,4.40
2019-02-25T06:59:39.487Z,4.70
2019-02-25T07:02:05.903Z,5.00
2019-02-25T07:04:42.481Z,5.30
2019-02-25T07:07:10.623Z,5.60
2019-02-25T07:09:38.999Z,6.00
2019-02-25T07:12:26.080Z,6.30
2019-02-25T07:14:54.131Z,6.10
2019-02-25T07:17:27.956Z,6.30
2019-02-25T07:19:56.026Z,6.60
2019-02-25T07:22:24.083Z,6.90
2019-02-25T07:24:53.036Z,7.10
2019-02-25T07:27:21.532Z,7.00
2019-02-25T07:29:58.079Z,7.30
2019-02-25T07:32:34.975Z,7.60
2019-02-25T07:35:08.543Z,8.00
2019-02-25T07:37:53.029Z,8.30
2019-02-25T07:40:33.045Z,8.50
2019-02-25T07:43:12.970Z,8.70
2019-02-25T07:45:41.036Z,8.80
2019-02-25T07:48:18.028Z,8.90
2019-02-25T07:51:04.315Z,9.20
2019-02-25T07:53:32.359Z,9.50
2019-02-25T07:56:03.236Z,9.70
2019-02-25T07:58:33.818Z,9.80
2019-02-25T08:01:03.508Z,10.20
2019-02-25T08:03:40.451Z,10.50
2019-02-25T08:06:17.479Z,10.80
2019-02-25T08:08:54.504Z,11.00
2019-02-25T08:11:31.707Z,11.30
2019-02-25T08:14:14.601Z,11.40
2019-02-25T08:16:45.174Z,11.50
2019-02-25T08:19:14.303Z,11.80
2019-02-25T08:21:47.937Z,11.70
2019-02-25T08:24:16.984Z,11.80
2019-02-25T08:27:01.296Z,12.10
2019-02-25T08:29:32.106Z,12.30
2019-02-25T08:32:16.607Z,12.50
2019-02-25T08:34:56.603Z,12.60
2019-02-25T08:37:34.328Z,12.80
2019-02-25T08:40:12.083Z,13.00
2019-02-25T08:42:48.664Z,13.00
2019-02-25T08:45:32.437Z,13.40
2019-02-25T08:48:06.315Z,13.60
2019-02-25T08:50:32.468Z,14.00
2019-02-25T08:52:59.740Z,14.10
2019-02-25T08:55:26.148Z,13.90
2019-02-25T08:57:52.285Z,14.20
2019-02-25T09:00:18.697Z,14.10
2019-02-25T09:02:44.840Z,14.20
2019-02-25T09:05:12.583Z,14.50
2019-02-25T09:07:38.723Z,14.50
2019-02-25T09:10:08.498Z,15.00
2019-02-25T09:12:34.623Z,15.10
2019-02-25T09:15:00.803Z,15.30
2019-02-25T09:17:26.966Z,15.60
2019-02-25T09:19:54.119Z,15.70
2019-02-25T09:22:20.264Z,15.50
2019-02-25T09:24:46.681Z,16.00
2019-02-25T09:27:12.819Z,15.90
2019-02-25T09:29:38.999Z,16.00
2019-02-25T09:32:05.152Z,16.40
2019-02-25T09:34:31.523Z,16.50
2019-02-25T09:36:57.912Z,16.30
2019-02-25T09:39:24.073Z,16.30
2019-02-25T09:41:50.467Z,17.20
2019-02-25T09:44:16.628Z,17.50
2019-02-25T09:46:42.767Z,17.80
2019-02-25T09:49:08.928Z,17.70
2019-02-25T09:51:35.082Z,17.70
2019-02-25T09:54:01.243Z,17.30
2019-02-25T09:56:28.407Z,17.00
2019-02-25T09:58:54.547Z,17.50
2019-02-25T10:01:20.711Z,17.80
2019-02-25T10:03:46.879Z,17.90
2019-02-25T10:06:13.100Z,18.10
2019-02-25T10:08:39.324Z,18.10
2019-02-25T10:11:05.484Z,18.20
2019-02-25T10:13:31.654Z,18.30
2019-02-25T10:15:57.903Z,17.90
2019-02-25T10:18:24.320Z,17.90
2019-02-25T10:20:51.630Z,17.90
2019-02-25T10:23:17.778Z,17.80
2019-02-25T10:25:44.159Z,17.10
2019-02-25T10:28:10.323Z,17.10
2019-02-25T10:30:36.484Z,16.80
2019-02-25T10:33:02.663Z,16.90
2019-02-25T10:35:29.791Z,17.20
2019-02-25T10:37:55.959Z,17.10
2019-02-25T10:40:24.809Z,17.00
2019-02-25T10:42:50.296Z,16.90
2019-02-25T10:45:17.924Z,16.70
2019-02-25T10:47:46.449Z,16.70
2019-02-25T10:50:13.177Z,16.60
2019-02-25T10:52:41.209Z,16.60
2019-02-25T10:55:28.455Z,16.60
2019-02-25T10:57:56.927Z,16.80
2019-02-25T11:00:22.855Z,16.90
2019-02-25T11:02:51.148Z,17.10
2019-02-25T11:05:18.926Z,17.10
2019-02-25T11:07:45.327Z,16.90
2019-02-25T11:10:16.061Z,17.00
2019-02-25T11:12:42.616Z,17.00
2019-02-25T11:15:11.551Z,17.10
2019-02-25T11:17:37.959Z,17.10
2019-02-25T11:20:12.612Z,17.20
2019-02-25T11:22:39.898Z,16.60
2019-02-25T11:25:09.047Z,16.80
2019-02-25T11:27:45.643Z,16.90
2019-02-25T11:30:16.692Z,17.00
2019-02-25T11:32:44.119Z,17.00
2019-02-25T11:35:12.918Z,16.90
2019-02-25T11:37:39.246Z,17.00
2019-02-25T11:40:08.917Z,17.10
2019-02-25T11:42:35.989Z,16.80
2019-02-25T11:45:05.550Z,17.20
2019-02-25T11:47:31.956Z,17.30
2019-02-25T11:49:58.096Z,17.40
2019-02-25T11:52:24.312Z,17.40
2019-02-25T11:54:50.462Z,17.40
2019-02-25T11:57:16.612Z,17.40
2019-02-25T11:59:42.770Z,17.30
2019-02-25T12:02:09.251Z,17.40
2019-02-25T12:04:35.662Z,17.50
2019-02-25T12:07:02.144Z,17.50
2019-02-25T12:09:28.326Z,17.70
2019-02-25T12:11:54.753Z,17.70
2019-02-25T12:14:20.926Z,17.70
2019-02-25T12:16:47.265Z,17.70
2019-02-25T12:19:18.015Z,17.70
2019-02-25T12:21:42.384Z,17.70
2019-02-25T12:24:08.689Z,17.70
2019-02-25T12:26:34.914Z,17.70
2019-02-25T12:29:10.377Z,17.70
2019-02-25T12:31:29.355Z,17.70
2019-02-25T12:33:55.496Z,17.80
2019-02-25T12:36:21.637Z,17.80
2019-02-25T12:38:48.061Z,17.70
2019-02-25T12:41:14.204Z,17.70
2019-02-25T12:43:40.362Z,17.70
2019-02-25T12:46:06.523Z,17.70
2019-02-25T12:48:32.945Z,17.80
2019-02-25T12:50:59.110Z,17.80
2019-02-25T12:53:25.266Z,17.80
2019-02-25T12:55:51.655Z,18.00
2019-02-25T12:58:17.808Z,18.00
2019-02-25T13:00:44.052Z,18.00
2019-02-25T13:03:10.278Z,18.10
2019-02-25T13:05:36.454Z,18.20
2019-02-25T13:08:02.877Z,18.30
2019-02-25T13:10:29.091Z,18.40
2019-02-25T13:12:55.277Z,18.30
2019-02-25T13:15:24.494Z,18.20
2019-02-25T13:17:50.653Z,18.30
2019-02-25T13:20:17.810Z,18.40
2019-02-25T13:22:43.953Z,18.40
2019-02-25T13:25:13.201Z,18.40
2019-02-25T13:27:39.482Z,18.40
2019-02-25T13:30:13.852Z,18.30
2019-02-25T13:32:40.004Z,18.20
2019-02-25T13:35:08.305Z,18.30
2019-02-25T13:37:34.496Z,18.30
2019-02-25T13:40:00.782Z,18.30
2019-02-25T13:42:27.024Z,18.20
2019-02-25T13:44:53.510Z,18.20
2019-02-25T13:47:19.755Z,18.20
2019-02-25T13:49:46.111Z,18.20
2019-02-25T13:52:12.391Z,18.20
2019-02-25T13:54:38.639Z,18.30
2019-02-25T13:57:04.796Z,18.20
2019-02-25T13:59:31.067Z,18.20
2019-02-25T14:01:57.241Z,18.10
2019-02-25T14:04:23.522Z,18.00
2019-02-25T14:06:49.716Z,18.00
2019-02-25T14:09:16.067Z,18.10
2019-02-25T14:11:44.123Z,18.10
2019-02-25T14:14:10.502Z,18.10
2019-02-25T14:16:37.012Z,18.20
2019-02-25T14:19:03.569Z,18.20
2019-02-25T14:21:31.617Z,18.20
2019-02-25T14:23:59.797Z,18.20
2019-02-25T14:26:26.117Z,18.20
2019-02-25T14:28:52.343Z,18.20
2019-02-25T14:31:18.805Z,18.20
2019-02-25T14:33:45.057Z,18.20
2019-02-25T14:36:11.199Z,18.20
2019-02-25T14:38:37.420Z,18.40
2019-02-25T14:41:04.524Z,18.40
2019-02-25T14:43:37.031Z,18.60
2019-02-25T14:46:01.583Z,18.60
2019-02-25T14:48:30.411Z,18.50
2019-02-25T14:50:56.672Z,18.40
2019-02-25T14:53:23.073Z,18.20
2019-02-25T14:55:50.327Z,18.20
2019-02-25T14:58:17.696Z,18.20
2019-02-25T15:00:43.970Z,18.40
2019-02-25T15:03:10.536Z,18.40
2019-02-25T15:05:36.805Z,18.30
2019-02-25T15:08:03.059Z,18.30
2019-02-25T15:10:31.539Z,18.50
2019-02-25T15:12:59.063Z,18.50
2019-02-25T15:15:25.913Z,18.30
2019-02-25T15:17:52.708Z,18.30
2019-02-25T15:20:20.893Z,18.30
2019-02-25T15:22:48.519Z,18.20
2019-02-25T15:25:17.987Z,18.20
2019-02-25T15:27:45.939Z,18.20
2019-02-25T15:30:28.272Z,18.20
2019-02-25T15:32:56.928Z,18.10
2019-02-25T15:35:26.487Z,18.30
2019-02-25T15:37:52.895Z,18.30
2019-02-25T15:40:21.030Z,18.20
2019-02-25T15:42:58.878Z,18.10
2019-02-25T15:45:26.967Z,18.20
2019-02-25T15:47:55.130Z,18.20
2019-02-25T15:50:21.606Z,18.20
2019-02-25T15:52:47.795Z,18.10
2019-02-25T15:55:16.837Z,18.10
2019-02-25T15:57:44.736Z,18.10
2019-02-25T16:00:19.111Z,18.10
2019-02-25T16:02:51.342Z,18.00
2019-02-25T16:05:17.627Z,17.90
2019-02-25T16:07:45.003Z,17.80
2019-02-25T16:10:11.987Z,17.70
2019-02-25T16:12:39.767Z,17.70
2019-02-25T16:15:11.509Z,17.70
2019-02-25T16:17:39.700Z,17.70
2019-02-25T16:20:08.663Z,17.70
2019-02-25T16:22:36.362Z,17.60
2019-02-25T16:25:07.420Z,17.50
2019-02-25T16:27:34.604Z,17.50
2019-02-25T16:30:02.941Z,17.40
2019-02-25T16:32:29.737Z,17.40
2019-02-25T16:34:57.639Z,17.30
2019-02-25T16:37:24.910Z,17.20
2019-02-25T16:39:53.694Z,17.10
2019-02-25T16:42:20.167Z,17.10
2019-02-25T16:44:46.543Z,17.10
2019-02-25T16:47:14.268Z,17.00
2019-02-25T16:49:41.893Z,17.00
2019-02-25T16:52:08.303Z,16.90
2019-02-25T16:54:34.444Z,16.80
2019-02-25T16:57:00.729Z,16.50
2019-02-25T16:59:26.985Z,16.40
2019-02-25T17:01:55.882Z,16.20
2019-02-25T17:04:23.311Z,16.10
2019-02-25T17:06:51.373Z,16.00
2019-02-25T17:09:20.420Z,15.90
2019-02-25T17:11:46.815Z,15.80
2019-02-25T17:14:14.808Z,15.60
2019-02-25T17:16:41.214Z,15.60
2019-02-25T17:19:07.448Z,15.50
2019-02-25T17:21:33.840Z,15.40
2019-02-25T17:24:00.639Z,15.30
2019-02-25T17:26:28.268Z,15.20
2019-02-25T17:28:54.549Z,15.10
2019-02-25T17:31:20.805Z,15.00
2019-02-25T17:33:48.985Z,15.00
2019-02-25T17:36:16.584Z,15.00
2019-02-25T17:38:45.206Z,14.90
2019-02-25T17:41:13.194Z,14.80
2019-02-25T17:43:40.871Z,14.70
2019-02-25T17:46:09.248Z,14.70
2019-02-25T17:48:35.895Z,14.50
2019-02-25T17:51:03.861Z,14.50
2019-02-25T17:53:32.773Z,14.30
2019-02-25T17:56:00.213Z,14.20
2019-02-25T17:58:26.562Z,14.10
2019-02-25T18:00:54.183Z,14.00
2019-02-25T18:03:22.092Z,14.00
2019-02-25T18:05:49.377Z,13.80
2019-02-25T18:08:15.811Z,13.70
2019-02-25T18:10:43.195Z,13.60
2019-02-25T18:13:10.890Z,13.50
2019-02-25T18:15:38.349Z,13.50
2019-02-25T18:18:07.141Z,13.40
2019-02-25T18:20:32.865Z,13.30
2019-02-25T18:22:59.424Z,13.20
2019-02-25T18:25:26.767Z,13.10
2019-02-25T18:27:53.190Z,13.10
2019-02-25T18:30:23.391Z,13.00
2019-02-25T18:32:50.488Z,12.90
2019-02-25T18:35:18.586Z,12.90
2019-02-25T18:37:46.733Z,12.90
2019-02-25T18:40:16.342Z,12.80
2019-02-25T18:42:43.564Z,12.70
2019-02-25T18:45:13.613Z,12.70
2019-02-25T18:47:39.698Z,12.70
2019-02-25T18:50:15.176Z,12.70
2019-02-25T18:52:40.487Z,12.60
2019-02-25T18:55:11.177Z,12.60
2019-02-25T18:57:37.611Z,12.50
2019-02-25T19:00:07.588Z,12.60
2019-02-25T19:02:36.462Z,12.60
2019-02-25T19:05:06.688Z,12.50
2019-02-25T19:07:33.665Z,12.50
2019-02-25T19:09:59.965Z,12.40
2019-02-25T19:12:26.170Z,12.30
2019-02-25T19:14:55.173Z,12.20
2019-02-25T19:17:21.056Z,12.20
2019-02-25T19:19:51.105Z,12.10
2019-02-25T19:22:17.390Z,12.10
2019-02-25T19:24:44.596Z,12.10
2019-02-25T19:27:12.941Z,12.00
2019-02-25T19:29:39.219Z,12.00
2019-02-25T19:32:05.469Z,11.90
2019-02-25T19:34:31.757Z,12.00
2019-02-25T19:37:02.025Z,12.00
2019-02-25T19:39:27.059Z,11.80
2019-02-25T19:41:53.829Z,11.80
2019-02-25T19:44:21.566Z,11.70
2019-02-25T19:46:48.640Z,11.70
2019-02-25T19:49:18.871Z,11.60
2019-02-25T19:51:46.152Z,11.60
2019-02-25T19:54:14.388Z,11.50
2019-02-25T19:56:41.875Z,11.40
2019-02-25T19:59:08.260Z,11.50
2019-02-25T20:01:34.396Z,11.50
2019-02-25T20:04:04.366Z,11.40
2019-02-25T20:06:28.755Z,11.40
2019-02-25T20:08:56.412Z,11.20
2019-02-25T20:11:23.092Z,11.20
2019-02-25T20:13:49.266Z,11.10
2019-02-25T20:16:18.007Z,11.10
2019-02-25T20:18:43.783Z,11.00
2019-02-25T20:21:11.091Z,11.00
2019-02-25T20:23:37.360Z,10.80
2019-02-25T20:26:03.633Z,10.70
2019-02-25T20:28:29.787Z,10.60
2019-02-25T20:30:56.527Z,10.60
2019-02-25T20:33:25.650Z,10.50
2019-02-25T20:35:53.409Z,10.50
2019-02-25T20:38:22.520Z,10.40
2019-02-25T20:40:50.832Z,10.30
2019-02-25T20:43:19.291Z,10.20
2019-02-25T20:45:43.677Z,10.20
2019-02-25T20:48:10.055Z,10.10
2019-02-25T20:50:36.218Z,10.10
2019-02-25T20:53:05.715Z,10.10
2019-02-25T20:55:31.605Z,10.00
2019-02-25T20:57:58.647Z,9.90
2019-02-25T21:00:24.808Z,9.90
2019-02-25T21:02:51.069Z,9.90
2019-02-25T21:05:19.504Z,9.80
2019-02-25T21:07:45.575Z,9.70
2019-02-25T21:10:13.772Z,9.70
2019-02-25T21:12:39.913Z,9.60
2019-02-25T21:15:09.671Z,9.50
2019-02-25T21:17:37.760Z,9.50
2019-02-25T21:20:09.439Z,9.50
2019-02-25T21:22:36.686Z,9.40
2019-02-25T21:25:07.284Z,9.40
2019-02-25T21:27:34.752Z,9.30
2019-02-25T21:30:06.118Z,9.30
2019-02-25T21:32:33.336Z,9.30
2019-02-25T21:35:01.941Z,9.20
2019-02-25T21:37:29.335Z,9.10
2019-02-25T21:39:56.130Z,9.00
2019-02-25T21:42:24.574Z,9.00
2019-02-25T21:44:52.536Z,9.00
2019-02-25T21:47:20.376Z,8.90
2019-02-25T21:49:47.080Z,8.90
2019-02-25T21:52:15.419Z,8.90
2019-02-25T21:54:41.578Z,8.80
2019-02-25T21:57:09.622Z,8.80
2019-02-25T21:59:36.612Z,8.80
2019-02-25T22:02:03.813Z,8.80
2019-02-25T22:04:29.959Z,8.70
2019-02-25T22:06:58.005Z,8.70
2019-02-25T22:09:35.994Z,8.70
2019-02-25T22:11:52.466Z,8.70
2019-02-25T22:14:20.854Z,8.70
2019-02-25T22:16:46.924Z,8.60
2019-02-25T22:19:14.178Z,8.40
2019-02-25T22:21:41.227Z,8.30
2019-02-25T22:24:08.060Z,8.30
2019-02-25T22:26:36.082Z,8.20
2019-02-25T22:29:03.479Z,8.10
2019-02-25T22:31:29.645Z,8.00
2019-02-25T22:33:55.782Z,7.90
2019-02-25T22:36:21.933Z,8.00
2019-02-25T22:38:48.331Z,7.90
2019-02-25T22:41:16.193Z,7.90
2019-02-25T22:43:44.425Z,8.00
2019-02-25T22:46:11.645Z,8.00
2019-02-25T22:48:42.000Z,8.00
2019-02-25T22:51:07.023Z,8.00
2019-02-25T22:53:33.271Z,7.90
2019-02-25T22:55:59.403Z,7.90
2019-02-25T22:58:27.728Z,7.90
2019-02-25T23:00:58.840Z,7.90
2019-02-25T23:03:27.475Z,7.90
2019-02-25T23:05:55.205Z,7.90
2019-02-25T23:08:23.420Z,7.90
2019-02-25T23:10:51.516Z,7.90
2019-02-25T23:13:17.752Z,7.90
2019-02-25T23:15:46.677Z,7.80
2019-02-25T23:18:14.828Z,7.80
2019-02-25T23:20:42.081Z,7.70
2019-02-25T23:23:08.223Z,7.60
2019-02-25T23:25:34.586Z,7.50
2019-02-25T23:28:02.294Z,7.50
2019-02-25T23:30:28.513Z,7.50
2019-02-25T23:32:54.960Z,7.50
2019-02-25T23:35:23.010Z,7.50
2019-02-25T23:37:51.514Z,7.50
2019-02-25T23:40:17.660Z,7.50
2019-02-25T23:42:44.295Z,7.40
2019-02-25T23:45:13.456Z,7.40
2019-02-25T23:47:41.199Z,7.30
2019-02-25T23:50:11.042Z,7.30
2019-02-25T23:52:38.526Z,7.30
2019-02-25T23:55:12.174Z,7.10
2019-02-25T23:57:36.380Z,7.10
